sensor_id;sensor_type;location;lat;lon;timestamp;pressure;altitude;pressure_sealevel;temperature;humidity
65754;BME280;52488;47.502;18.940;2023-04-05T00:00:07;98286.94;;;-0.32;58.32
65754;BME280;52488;47.502;18.940;2023-04-05T00:01:13;98282.78;;;-0.33;58.20
65754;BME280;52488;47.502;18.940;2023-04-05T00:02:19;98284.97;;;-0.31;58.06
65754;BME280;52488;47.502;18.940;2023-04-05T00:03:22;98279.56;;;-0.31;57.85
65754;BME280;52488;47.502;18.940;2023-04-05T00:04:26;98286.69;;;-0.34;57.76
65754;BME280;52488;47.502;18.940;2023-04-05T00:05:30;98280.81;;;-0.32;57.67
65754;BME280;52488;47.502;18.940;2023-04-05T00:06:36;98287.94;;;-0.35;57.93
65754;BME280;52488;47.502;18.940;2023-04-05T00:07:41;98283.78;;;-0.36;58.42
65754;BME280;52488;47.502;18.940;2023-04-05T00:08:44;98281.28;;;-0.34;58.25
65754;BME280;52488;47.502;18.940;2023-04-05T00:09:51;98279.63;;;-0.37;58.05
65754;BME280;52488;47.502;18.940;2023-04-05T00:10:55;98279.88;;;-0.40;58.43
65754;BME280;52488;47.502;18.940;2023-04-05T00:11:58;98276.44;;;-0.41;58.52
65754;BME280;52488;47.502;18.940;2023-04-05T00:13:01;98283.59;;;-0.43;58.55
65754;BME280;52488;47.502;18.940;2023-04-05T00:14:04;98277.47;;;-0.44;58.42
65754;BME280;52488;47.502;18.940;2023-04-05T00:15:07;98282.12;;;-0.44;58.22
65754;BME280;52488;47.502;18.940;2023-04-05T00:16:10;98269.13;;;-0.46;58.25
65754;BME280;52488;47.502;18.940;2023-04-05T00:17:13;98277.00;;;-0.48;58.74
65754;BME280;52488;47.502;18.940;2023-04-05T00:18:17;98275.75;;;-0.47;58.44
65754;BME280;52488;47.502;18.940;2023-04-05T00:19:26;98283.84;;;-0.47;58.42
65754;BME280;52488;47.502;18.940;2023-04-05T00:20:29;98280.94;;;-0.49;58.68
65754;BME280;52488;47.502;18.940;2023-04-05T00:21:32;98270.63;;;-0.50;59.02
65754;BME280;52488;47.502;18.940;2023-04-05T00:22:36;98276.03;;;-0.50;58.86
65754;BME280;52488;47.502;18.940;2023-04-05T00:23:40;98269.16;;;-0.51;58.84
65754;BME280;52488;47.502;18.940;2023-04-05T00:24:43;98273.63;;;-0.54;58.93
65754;BME280;52488;47.502;18.940;2023-04-05T00:25:47;98277.56;;;-0.55;59.42
65754;BME280;52488;47.502;18.940;2023-04-05T00:26:50;98268.69;;;-0.56;59.37
65754;BME280;52488;47.502;18.940;2023-04-05T00:27:53;98262.09;;;-0.55;59.03
65754;BME280;52488;47.502;18.940;2023-04-05T00:28:56;98264.53;;;-0.57;59.08
65754;BME280;52488;47.502;18.940;2023-04-05T00:29:59;98265.28;;;-0.56;59.11
65754;BME280;52488;47.502;18.940;2023-04-05T00:31:04;98263.31;;;-0.56;58.94
65754;BME280;52488;47.502;18.940;2023-04-05T00:32:07;98266.00;;;-0.56;58.80
65754;BME280;52488;47.502;18.940;2023-04-05T00:33:13;98259.44;;;-0.60;59.01
65754;BME280;52488;47.502;18.940;2023-04-05T00:34:16;98272.19;;;-0.61;58.94
65754;BME280;52488;47.502;18.940;2023-04-05T00:35:19;98266.56;;;-0.63;58.87
65754;BME280;52488;47.502;18.940;2023-04-05T00:36:22;98269.25;;;-0.63;58.73
65754;BME280;52488;47.502;18.940;2023-04-05T00:37:26;98272.25;;;-0.66;58.77
65754;BME280;52488;47.502;18.940;2023-04-05T00:38:29;98267.38;;;-0.73;59.00
65754;BME280;52488;47.502;18.940;2023-04-05T00:39:32;98259.00;;;-0.70;58.96
65754;BME280;52488;47.502;18.940;2023-04-05T00:40:35;98269.84;;;-0.75;59.49
65754;BME280;52488;47.502;18.940;2023-04-05T00:41:39;98265.91;;;-0.74;59.61
65754;BME280;52488;47.502;18.940;2023-04-05T00:42:42;98266.16;;;-0.78;59.65
65754;BME280;52488;47.502;18.940;2023-04-05T00:43:45;98268.91;;;-0.84;60.33
65754;BME280;52488;47.502;18.940;2023-04-05T00:44:48;98259.84;;;-0.86;60.86
65754;BME280;52488;47.502;18.940;2023-04-05T00:45:52;98262.56;;;-0.86;60.70
65754;BME280;52488;47.502;18.940;2023-04-05T00:46:55;98263.28;;;-0.86;60.47
65754;BME280;52488;47.502;18.940;2023-04-05T00:47:58;98264.75;;;-0.85;60.28
65754;BME280;52488;47.502;18.940;2023-04-05T00:49:03;98262.56;;;-0.86;60.38
65754;BME280;52488;47.502;18.940;2023-04-05T00:50:07;98267.94;;;-0.86;60.34
65754;BME280;52488;47.502;18.940;2023-04-05T00:51:11;98265.47;;;-0.84;60.10
65754;BME280;52488;47.502;18.940;2023-04-05T00:52:14;98265.47;;;-0.84;60.02
65754;BME280;52488;47.502;18.940;2023-04-05T00:53:18;98268.91;;;-0.84;59.86
65754;BME280;52488;47.502;18.940;2023-04-05T00:54:22;98260.06;;;-0.84;59.74
65754;BME280;52488;47.502;18.940;2023-04-05T00:55:26;98264.53;;;-0.87;59.69
65754;BME280;52488;47.502;18.940;2023-04-05T00:56:30;98268.16;;;-0.84;59.56
65754;BME280;52488;47.502;18.940;2023-04-05T00:57:34;98263.06;;;-0.88;59.49
65754;BME280;52488;47.502;18.940;2023-04-05T00:58:41;98267.22;;;-0.87;59.73
65754;BME280;52488;47.502;18.940;2023-04-05T00:59:45;98266.50;;;-0.87;59.51
65754;BME280;52488;47.502;18.940;2023-04-05T01:00:59;98266.53;;;-0.93;59.50
65754;BME280;52488;47.502;18.940;2023-04-05T01:02:12;98266.53;;;-0.93;59.62
65754;BME280;52488;47.502;18.940;2023-04-05T01:03:19;98262.03;;;-0.85;59.30
65754;BME280;52488;47.502;18.940;2023-04-05T01:04:29;98265.28;;;-0.92;59.35
65754;BME280;52488;47.502;18.940;2023-04-05T01:09:39;98266.13;;;-1.08;59.67
65754;BME280;52488;47.502;18.940;2023-04-05T01:10:52;98261.72;;;-1.11;59.98
65754;BME280;52488;47.502;18.940;2023-04-05T01:11:58;98254.84;;;-1.12;60.05
65754;BME280;52488;47.502;18.940;2023-04-05T01:13:04;98255.34;;;-1.14;60.04
65754;BME280;52488;47.502;18.940;2023-04-05T01:14:07;98255.87;;;-1.15;60.03
65754;BME280;52488;47.502;18.940;2023-04-05T01:15:15;98254.41;;;-1.16;60.24
65754;BME280;52488;47.502;18.940;2023-04-05T01:16:20;98253.66;;;-1.17;60.74
65754;BME280;52488;47.502;18.940;2023-04-05T01:17:26;98250.47;;;-1.15;60.64
65754;BME280;52488;47.502;18.940;2023-04-05T01:18:30;98258.56;;;-1.15;60.71
65754;BME280;52488;47.502;18.940;2023-04-05T01:19:35;98255.34;;;-1.14;60.67
65754;BME280;52488;47.502;18.940;2023-04-05T01:22:15;98259.81;;;-1.16;60.48
65754;BME280;52488;47.502;18.940;2023-04-05T01:23:44;98265.44;;;-1.20;60.56
65754;BME280;52488;47.502;18.940;2023-04-05T01:29:38;98256.84;;;-1.18;60.64
65754;BME280;52488;47.502;18.940;2023-04-05T01:30:52;98260.06;;;-1.20;60.73
65754;BME280;52488;47.502;18.940;2023-04-05T01:34:53;98255.69;;;-1.28;60.68
65754;BME280;52488;47.502;18.940;2023-04-05T01:36:03;98257.41;;;-1.31;61.03
65754;BME280;52488;47.502;18.940;2023-04-05T01:37:11;98254.00;;;-1.31;61.19
65754;BME280;52488;47.502;18.940;2023-04-05T01:38:21;98251.03;;;-1.34;61.29
65754;BME280;52488;47.502;18.940;2023-04-05T01:39:27;98248.59;;;-1.31;61.34
65754;BME280;52488;47.502;18.940;2023-04-05T01:40:34;98246.88;;;-1.35;61.18
65754;BME280;52488;47.502;18.940;2023-04-05T01:41:38;98246.44;;;-1.39;61.12
65754;BME280;52488;47.502;18.940;2023-04-05T01:42:43;98249.13;;;-1.39;61.31
65754;BME280;52488;47.502;18.940;2023-04-05T01:43:48;98244.94;;;-1.40;61.44
65754;BME280;52488;47.502;18.940;2023-04-05T01:44:55;98243.50;;;-1.41;61.43
65754;BME280;52488;47.502;18.940;2023-04-05T01:45:58;98244.94;;;-1.40;61.52
65754;BME280;52488;47.502;18.940;2023-04-05T01:47:01;98240.56;;;-1.43;61.89
65754;BME280;52488;47.502;18.940;2023-04-05T01:48:04;98246.47;;;-1.44;62.00
65754;BME280;52488;47.502;18.940;2023-04-05T01:49:08;98250.38;;;-1.45;61.98
65754;BME280;52488;47.502;18.940;2023-04-05T01:50:10;98250.13;;;-1.47;62.00
65754;BME280;52488;47.502;18.940;2023-04-05T01:51:13;98239.13;;;-1.49;61.98
65754;BME280;52488;47.502;18.940;2023-04-05T01:52:16;98247.47;;;-1.53;62.10
65754;BME280;52488;47.502;18.940;2023-04-05T01:53:19;98242.06;;;-1.53;62.18
65754;BME280;52488;47.502;18.940;2023-04-05T01:54:23;98244.78;;;-1.53;62.27
65754;BME280;52488;47.502;18.940;2023-04-05T01:55:26;98244.78;;;-1.53;62.81
65754;BME280;52488;47.502;18.940;2023-04-05T01:56:29;98242.06;;;-1.53;62.69
65754;BME280;52488;47.502;18.940;2023-04-05T01:57:32;98239.87;;;-1.54;62.60
65754;BME280;52488;47.502;18.940;2023-04-05T01:58:35;98234.75;;;-1.58;62.50
65754;BME280;52488;47.502;18.940;2023-04-05T01:59:38;98242.09;;;-1.58;62.55
65754;BME280;52488;47.502;18.940;2023-04-05T02:00:41;98238.69;;;-1.59;62.71
65754;BME280;52488;47.502;18.940;2023-04-05T02:01:45;98245.03;;;-1.56;62.70
65754;BME280;52488;47.502;18.940;2023-04-05T02:02:48;98236.72;;;-1.58;62.97
65754;BME280;52488;47.502;18.940;2023-04-05T02:03:51;98239.19;;;-1.61;63.16
65754;BME280;52488;47.502;18.940;2023-04-05T02:04:54;98241.88;;;-1.61;63.06
65754;BME280;52488;47.502;18.940;2023-04-05T02:05:57;98242.59;;;-1.60;62.86
65754;BME280;52488;47.502;18.940;2023-04-05T02:07:00;98245.03;;;-1.62;62.98
65754;BME280;52488;47.502;18.940;2023-04-05T02:08:04;98236.97;;;-1.62;63.93
65754;BME280;52488;47.502;18.940;2023-04-05T02:09:07;98239.66;;;-1.62;63.71
65754;BME280;52488;47.502;18.940;2023-04-05T02:10:10;98241.13;;;-1.61;64.03
65754;BME280;52488;47.502;18.940;2023-04-05T02:11:13;98241.13;;;-1.61;64.57
65754;BME280;52488;47.502;18.940;2023-04-05T02:12:16;98244.06;;;-1.59;64.95
65754;BME280;52488;47.502;18.940;2023-04-05T02:13:19;98241.59;;;-1.57;65.12
65754;BME280;52488;47.502;18.940;2023-04-05T02:14:27;98241.59;;;-1.57;65.02
65754;BME280;52488;47.502;18.940;2023-04-05T02:15:30;98245.75;;;-1.56;65.00
65754;BME280;52488;47.502;18.940;2023-04-05T02:16:34;98240.37;;;-1.56;64.61
65754;BME280;52488;47.502;18.940;2023-04-05T02:17:37;98235.97;;;-1.59;64.38
65754;BME280;52488;47.502;18.940;2023-04-05T02:18:47;98242.09;;;-1.58;64.25
65754;BME280;52488;47.502;18.940;2023-04-05T02:19:52;98239.16;;;-1.55;63.83
65754;BME280;52488;47.502;18.940;2023-04-05T02:21:06;98237.22;;;-1.60;63.63
65754;BME280;52488;47.502;18.940;2023-04-05T02:22:09;98235.47;;;-1.57;63.55
65754;BME280;52488;47.502;18.940;2023-04-05T02:23:12;98228.88;;;-1.62;63.51
65754;BME280;52488;47.502;18.940;2023-04-05T02:24:15;98238.94;;;-1.63;63.51
65754;BME280;52488;47.502;18.940;2023-04-05T02:25:18;98230.81;;;-1.57;63.29
65754;BME280;52488;47.502;18.940;2023-04-05T02:26:21;98233.03;;;-1.61;63.58
65754;BME280;52488;47.502;18.940;2023-04-05T02:27:24;98230.13;;;-1.63;63.57
65754;BME280;52488;47.502;18.940;2023-04-05T02:28:27;98233.81;;;-1.66;63.63
65754;BME280;52488;47.502;18.940;2023-04-05T02:29:30;98235.75;;;-1.67;63.45
65754;BME280;52488;47.502;18.940;2023-04-05T02:30:33;98231.84;;;-1.66;63.23
65754;BME280;52488;47.502;18.940;2023-04-05T02:31:36;98226.72;;;-1.69;63.17
65754;BME280;52488;47.502;18.940;2023-04-05T02:32:40;98237.00;;;-1.73;63.25
65754;BME280;52488;47.502;18.940;2023-04-05T02:33:47;98238.22;;;-1.74;63.35
65754;BME280;52488;47.502;18.940;2023-04-05T02:34:51;98235.53;;;-1.74;63.36
65754;BME280;52488;47.502;18.940;2023-04-05T02:35:54;98237.28;;;-1.77;63.55
65754;BME280;52488;47.502;18.940;2023-04-05T02:36:57;98231.91;;;-1.77;63.57
65754;BME280;52488;47.502;18.940;2023-04-05T02:38:02;98230.91;;;-1.79;64.00
65754;BME280;52488;47.502;18.940;2023-04-05T02:39:06;98228.72;;;-1.81;64.62
65754;BME280;52488;47.502;18.940;2023-04-05T02:40:11;98240.72;;;-1.82;64.48
65754;BME280;52488;47.502;18.940;2023-04-05T02:41:16;98227.72;;;-1.83;65.08
65754;BME280;52488;47.502;18.940;2023-04-05T02:42:19;98230.41;;;-1.83;65.16
65754;BME280;52488;47.502;18.940;2023-04-05T02:43:22;98230.69;;;-1.81;64.80
65754;BME280;52488;47.502;18.940;2023-04-05T02:44:25;98233.13;;;-1.83;64.44
65754;BME280;52488;47.502;18.940;2023-04-05T02:45:28;98235.34;;;-1.88;64.42
65754;BME280;52488;47.502;18.940;2023-04-05T02:46:31;98231.44;;;-1.87;64.49
65754;BME280;52488;47.502;18.940;2023-04-05T02:47:35;98229.72;;;-1.90;64.48
65754;BME280;52488;47.502;18.940;2023-04-05T02:48:38;98225.56;;;-1.91;64.55
65754;BME280;52488;47.502;18.940;2023-04-05T02:49:41;98230.72;;;-1.93;64.46
65754;BME280;52488;47.502;18.940;2023-04-05T02:50:48;98229.50;;;-1.97;64.79
65754;BME280;52488;47.502;18.940;2023-04-05T02:51:51;98225.06;;;-1.95;64.66
65754;BME280;52488;47.502;18.940;2023-04-05T02:52:54;98225.56;;;-1.96;64.53
65754;BME280;52488;47.502;18.940;2023-04-05T02:53:58;98226.56;;;-1.99;64.37
65754;BME280;52488;47.502;18.940;2023-04-05T02:55:00;98222.16;;;-2.02;64.48
65754;BME280;52488;47.502;18.940;2023-04-05T02:56:04;98220.72;;;-2.03;64.52
65754;BME280;52488;47.502;18.940;2023-04-05T02:57:07;98221.91;;;-1.99;64.48
65754;BME280;52488;47.502;18.940;2023-04-05T02:58:13;98219.97;;;-1.98;64.73
65754;BME280;52488;47.502;18.940;2023-04-05T02:59:16;98224.59;;;-1.93;64.47
65754;BME280;52488;47.502;18.940;2023-04-05T03:00:19;98222.16;;;-1.97;64.22
65754;BME280;52488;47.502;18.940;2023-04-05T03:01:23;98217.78;;;-2.00;64.27
65754;BME280;52488;47.502;18.940;2023-04-05T03:02:26;98218.00;;;-1.98;64.20
65754;BME280;52488;47.502;18.940;2023-04-05T03:03:29;98223.16;;;-2.00;64.04
65754;BME280;52488;47.502;18.940;2023-04-05T03:04:32;98219.25;;;-2.04;64.15
65754;BME280;52488;47.502;18.940;2023-04-05T03:05:38;98226.09;;;-2.03;63.96
65754;BME280;52488;47.502;18.940;2023-04-05T03:06:42;98222.16;;;-2.02;63.84
65754;BME280;52488;47.502;18.940;2023-04-05T03:07:47;98225.84;;;-2.00;63.79
65754;BME280;52488;47.502;18.940;2023-04-05T03:08:52;98227.03;;;-2.01;63.76
65754;BME280;52488;47.502;18.940;2023-04-05T03:09:55;98224.63;;;-2.04;64.12
65754;BME280;52488;47.502;18.940;2023-04-05T03:10:59;98221.44;;;-2.03;64.19
65754;BME280;52488;47.502;18.940;2023-04-05T03:12:05;98220.94;;;-2.01;64.03
65754;BME280;52488;47.502;18.940;2023-04-05T03:13:07;98220.94;;;-2.01;64.50
65754;BME280;52488;47.502;18.940;2023-04-05T03:14:10;98227.31;;;-1.99;64.44
65754;BME280;52488;47.502;18.940;2023-04-05T03:15:14;98221.91;;;-1.99;64.32
65754;BME280;52488;47.502;18.940;2023-04-05T03:16:16;98225.81;;;-1.94;64.28
65754;BME280;52488;47.502;18.940;2023-04-05T03:17:21;98223.88;;;-1.94;64.24
65754;BME280;52488;47.502;18.940;2023-04-05T03:18:24;98226.31;;;-1.96;64.24
65754;BME280;52488;47.502;18.940;2023-04-05T03:19:28;98228.25;;;-1.91;63.75
65754;BME280;52488;47.502;18.940;2023-04-05T03:20:35;98226.31;;;-1.96;64.05
65754;BME280;52488;47.502;18.940;2023-04-05T03:21:41;98221.91;;;-1.99;64.11
65754;BME280;52488;47.502;18.940;2023-04-05T03:22:44;98225.56;;;-1.96;64.03
65754;BME280;52488;47.502;18.940;2023-04-05T03:23:48;98223.38;;;-1.98;64.06
65754;BME280;52488;47.502;18.940;2023-04-05T03:24:52;98224.59;;;-1.93;63.41
65754;BME280;52488;47.502;18.940;2023-04-05T03:25:59;98228.50;;;-1.89;63.37
65754;BME280;52488;47.502;18.940;2023-04-05T03:27:03;98225.31;;;-1.87;63.14
65754;BME280;52488;47.502;18.940;2023-04-05T03:28:07;98224.31;;;-1.84;63.18
65754;BME280;52488;47.502;18.940;2023-04-05T03:29:11;98225.31;;;-1.87;63.16
65754;BME280;52488;47.502;18.940;2023-04-05T03:30:14;98225.56;;;-1.91;63.14
65754;BME280;52488;47.502;18.940;2023-04-05T03:31:17;98225.81;;;-1.89;63.33
65754;BME280;52488;47.502;18.940;2023-04-05T03:32:22;98228.72;;;-1.87;63.31
65754;BME280;52488;47.502;18.940;2023-04-05T03:33:25;98226.03;;;-1.87;63.08
65754;BME280;52488;47.502;18.940;2023-04-05T03:34:28;98233.37;;;-1.81;62.97
65754;BME280;52488;47.502;18.940;2023-04-05T03:35:32;98229.66;;;-1.78;62.77
65754;BME280;52488;47.502;18.940;2023-04-05T03:36:35;98232.13;;;-1.80;62.28
65754;BME280;52488;47.502;18.940;2023-04-05T03:37:44;98224.28;;;-1.78;62.26
65754;BME280;52488;47.502;18.940;2023-04-05T03:38:47;98234.06;;;-1.70;61.76
65754;BME280;52488;47.502;18.940;2023-04-05T03:39:52;98229.41;;;-1.69;61.48
65754;BME280;52488;47.502;18.940;2023-04-05T03:40:55;98231.88;;;-1.71;61.69
65754;BME280;52488;47.502;18.940;2023-04-05T03:41:58;98234.06;;;-1.70;61.54
65754;BME280;52488;47.502;18.940;2023-04-05T03:43:01;98237.25;;;-1.71;61.88
65754;BME280;52488;47.502;18.940;2023-04-05T03:44:05;98232.59;;;-1.71;61.74
65754;BME280;52488;47.502;18.940;2023-04-05T03:45:08;98241.41;;;-1.70;61.60
65754;BME280;52488;47.502;18.940;2023-04-05T03:46:11;98235.53;;;-1.74;62.25
65754;BME280;52488;47.502;18.940;2023-04-05T03:47:15;98233.06;;;-1.72;62.24
65754;BME280;52488;47.502;18.940;2023-04-05T03:48:18;98239.94;;;-1.71;61.88
65754;BME280;52488;47.502;18.940;2023-04-05T03:49:22;98237.72;;;-1.73;61.89
65754;BME280;52488;47.502;18.940;2023-04-05T03:50:26;98241.94;;;-1.77;62.12
65754;BME280;52488;47.502;18.940;2023-04-05T03:51:29;98240.44;;;-1.78;62.09
65754;BME280;52488;47.502;18.940;2023-04-05T03:52:32;98239.72;;;-1.79;62.22
65754;BME280;52488;47.502;18.940;2023-04-05T03:53:35;98241.19;;;-1.78;62.28
65754;BME280;52488;47.502;18.940;2023-04-05T03:54:38;98249.75;;;-1.79;62.55
65754;BME280;52488;47.502;18.940;2023-04-05T03:55:42;98245.59;;;-1.80;62.67
65754;BME280;52488;47.502;18.940;2023-04-05T03:56:52;98244.66;;;-1.83;62.46
65754;BME280;52488;47.502;18.940;2023-04-05T03:57:55;98242.19;;;-1.87;62.64
65754;BME280;52488;47.502;18.940;2023-04-05T03:58:58;98243.44;;;-1.88;63.27
65754;BME280;52488;47.502;18.940;2023-04-05T04:00:01;98244.66;;;-1.89;63.32
65754;BME280;52488;47.502;18.940;2023-04-05T04:01:19;98241.47;;;-1.87;63.01
65754;BME280;52488;47.502;18.940;2023-04-05T04:02:22;98242.44;;;-1.90;63.07
65754;BME280;52488;47.502;18.940;2023-04-05T04:03:25;98246.88;;;-1.93;63.52
65754;BME280;52488;47.502;18.940;2023-04-05T04:04:30;98244.41;;;-1.91;63.31
65754;BME280;52488;47.502;18.940;2023-04-05T04:05:33;98245.63;;;-1.92;63.43
65754;BME280;52488;47.502;18.940;2023-04-05T04:06:41;98245.63;;;-1.92;63.50
65754;BME280;52488;47.502;18.940;2023-04-05T04:07:44;98241.97;;;-1.94;63.21
65754;BME280;52488;47.502;18.940;2023-04-05T04:08:47;98251.75;;;-1.97;63.34
65754;BME280;52488;47.502;18.940;2023-04-05T04:09:50;98247.37;;;-2.00;63.20
65754;BME280;52488;47.502;18.940;2023-04-05T04:10:53;98247.41;;;-2.05;63.23
65754;BME280;52488;47.502;18.940;2023-04-05T04:11:56;98245.66;;;-2.08;64.19
65754;BME280;52488;47.502;18.940;2023-04-05T04:12:59;98245.66;;;-2.08;64.10
65754;BME280;52488;47.502;18.940;2023-04-05T04:14:02;98249.31;;;-2.00;63.54
65754;BME280;52488;47.502;18.940;2023-04-05T04:15:06;98252.75;;;-2.00;63.28
65754;BME280;52488;47.502;18.940;2023-04-05T04:16:09;98253.50;;;-1.99;63.35
65754;BME280;52488;47.502;18.940;2023-04-05T04:17:28;98243.22;;;-2.06;63.33
65754;BME280;52488;47.502;18.940;2023-04-05T04:18:33;98245.66;;;-2.08;63.88
65754;BME280;52488;47.502;18.940;2023-04-05T04:19:36;98253.25;;;-2.07;63.71
65754;BME280;52488;47.502;18.940;2023-04-05T04:20:39;98245.19;;;-2.13;63.55
65754;BME280;52488;47.502;18.940;2023-04-05T04:21:42;98250.56;;;-2.18;64.11
65754;BME280;52488;47.502;18.940;2023-04-05T04:22:47;98241.28;;;-2.17;64.04
65754;BME280;52488;47.502;18.940;2023-04-05T04:23:51;98251.81;;;-2.19;63.90
65754;BME280;52488;47.502;18.940;2023-04-05T04:24:54;98242.50;;;-2.24;64.01
65754;BME280;52488;47.502;18.940;2023-04-05T04:25:57;98248.41;;;-2.25;64.25
65754;BME280;52488;47.502;18.940;2023-04-05T04:27:01;98244.47;;;-2.24;64.68
65754;BME280;52488;47.502;18.940;2023-04-05T04:28:04;98242.78;;;-2.27;64.89
65754;BME280;52488;47.502;18.940;2023-04-05T04:29:11;98244.47;;;-2.24;64.79
65754;BME280;52488;47.502;18.940;2023-04-05T04:30:20;98245.47;;;-2.27;64.71
65754;BME280;52488;47.502;18.940;2023-04-05T04:31:24;98248.41;;;-2.31;65.69
65754;BME280;52488;47.502;18.940;2023-04-05T04:32:28;98251.81;;;-2.30;65.27
65754;BME280;52488;47.502;18.940;2023-04-05T04:33:51;98249.63;;;-2.26;65.04
65754;BME280;52488;47.502;18.940;2023-04-05T04:34:55;98245.47;;;-2.27;64.87
65754;BME280;52488;47.502;18.940;2023-04-05T04:35:58;98245.19;;;-2.24;64.63
65754;BME280;52488;47.502;18.940;2023-04-05T04:37:04;98246.66;;;-2.23;64.81
65754;BME280;52488;47.502;18.940;2023-04-05T04:38:09;98244.22;;;-2.21;64.56
65754;BME280;52488;47.502;18.940;2023-04-05T04:39:12;98246.44;;;-2.19;64.33
65754;BME280;52488;47.502;18.940;2023-04-05T04:40:15;98242.00;;;-2.17;64.86
65754;BME280;52488;47.502;18.940;2023-04-05T04:41:21;98253.03;;;-2.15;64.53
65754;BME280;52488;47.502;18.940;2023-04-05T04:42:24;98254.47;;;-2.02;63.09
65754;BME280;52488;47.502;18.940;2023-04-05T04:43:27;98247.37;;;-2.00;62.68
65754;BME280;52488;47.502;18.940;2023-04-05T04:44:30;98254.97;;;-1.98;62.85
65754;BME280;52488;47.502;18.940;2023-04-05T04:45:34;98251.25;;;-1.95;62.78
65754;BME280;52488;47.502;18.940;2023-04-05T04:46:39;98246.59;;;-1.95;62.67
65754;BME280;52488;47.502;18.940;2023-04-05T04:47:47;98256.91;;;-1.93;63.34
65754;BME280;52488;47.502;18.940;2023-04-05T04:48:50;98257.38;;;-1.89;63.25
65754;BME280;52488;47.502;18.940;2023-04-05T04:49:54;98249.53;;;-1.87;63.18
65754;BME280;52488;47.502;18.940;2023-04-05T04:51:01;98251.50;;;-1.82;63.45
65754;BME280;52488;47.502;18.940;2023-04-05T04:52:04;98255.16;;;-1.85;64.80
65754;BME280;52488;47.502;18.940;2023-04-05T04:53:07;98257.13;;;-1.86;64.98
65754;BME280;52488;47.502;18.940;2023-04-05T04:54:10;98261.78;;;-1.86;64.92
65754;BME280;52488;47.502;18.940;2023-04-05T04:55:14;98258.59;;;-1.84;64.86
65754;BME280;52488;47.502;18.940;2023-04-05T04:56:18;98258.34;;;-1.87;65.15
65754;BME280;52488;47.502;18.940;2023-04-05T04:57:20;98261.03;;;-1.81;65.13
65754;BME280;52488;47.502;18.940;2023-04-05T04:58:23;98255.16;;;-1.79;65.68
65754;BME280;52488;47.502;18.940;2023-04-05T04:59:27;98260.31;;;-1.81;65.55
65754;BME280;52488;47.502;18.940;2023-04-05T05:00:30;98258.59;;;-1.84;66.31
65754;BME280;52488;47.502;18.940;2023-04-05T05:01:34;98260.81;;;-1.83;66.36
65754;BME280;52488;47.502;18.940;2023-04-05T05:02:40;98255.16;;;-1.85;66.45
65754;BME280;52488;47.502;18.940;2023-04-05T05:03:43;98254.66;;;-1.83;66.58
65754;BME280;52488;47.502;18.940;2023-04-05T05:04:46;98267.62;;;-1.76;66.52
65754;BME280;52488;47.502;18.940;2023-04-05T05:05:49;98270.06;;;-1.78;66.92
65754;BME280;52488;47.502;18.940;2023-04-05T05:06:53;98263.00;;;-1.81;66.85
65754;BME280;52488;47.502;18.940;2023-04-05T05:07:55;98265.44;;;-1.83;66.73
65754;BME280;52488;47.502;18.940;2023-04-05T05:08:58;98265.69;;;-1.87;66.70
65754;BME280;52488;47.502;18.940;2023-04-05T05:10:03;98260.56;;;-1.91;66.98
65754;BME280;52488;47.502;18.940;2023-04-05T05:11:06;98266.22;;;-1.94;67.01
65754;BME280;52488;47.502;18.940;2023-04-05T05:12:09;98260.34;;;-1.98;67.31
65754;BME280;52488;47.502;18.940;2023-04-05T05:13:12;98259.84;;;-1.97;67.33
65754;BME280;52488;47.502;18.940;2023-04-05T05:14:15;98263.03;;;-1.98;67.82
65754;BME280;52488;47.502;18.940;2023-04-05T05:15:18;98263.75;;;-1.98;68.10
65754;BME280;52488;47.502;18.940;2023-04-05T05:16:22;98263.75;;;-1.98;68.06
65754;BME280;52488;47.502;18.940;2023-04-05T05:17:25;98265.47;;;-1.95;67.82
65754;BME280;52488;47.502;18.940;2023-04-05T05:18:29;98263.03;;;-1.93;67.91
65754;BME280;52488;47.502;18.940;2023-04-05T05:19:31;98265.72;;;-1.93;67.78
65754;BME280;52488;47.502;18.940;2023-04-05T05:20:35;98266.22;;;-1.94;68.10
65754;BME280;52488;47.502;18.940;2023-04-05T05:21:39;98266.22;;;-1.94;68.32
65754;BME280;52488;47.502;18.940;2023-04-05T05:22:41;98269.13;;;-1.92;68.11
65754;BME280;52488;47.502;18.940;2023-04-05T05:23:44;98270.09;;;-1.90;68.01
65754;BME280;52488;47.502;18.940;2023-04-05T05:24:48;98267.41;;;-1.90;68.04
65754;BME280;52488;47.502;18.940;2023-04-05T05:25:56;98269.63;;;-1.88;68.10
65754;BME280;52488;47.502;18.940;2023-04-05T05:26:59;98266.19;;;-1.89;68.07
65754;BME280;52488;47.502;18.940;2023-04-05T05:28:03;98271.81;;;-1.87;68.25
65754;BME280;52488;47.502;18.940;2023-04-05T05:29:06;98277.44;;;-1.84;68.40
65754;BME280;52488;47.502;18.940;2023-04-05T05:30:09;98276.69;;;-1.79;68.11
65754;BME280;52488;47.502;18.940;2023-04-05T05:31:12;98278.41;;;-1.76;68.04
65754;BME280;52488;47.502;18.940;2023-04-05T05:32:16;98284.25;;;-1.78;67.98
65754;BME280;52488;47.502;18.940;2023-04-05T05:33:20;98278.41;;;-1.76;67.89
65754;BME280;52488;47.502;18.940;2023-04-05T05:34:22;98277.69;;;-1.77;68.19
65754;BME280;52488;47.502;18.940;2023-04-05T05:35:26;98276.44;;;-1.76;68.34
65754;BME280;52488;47.502;18.940;2023-04-05T05:36:29;98279.56;;;-1.55;65.59
65754;BME280;52488;47.502;18.940;2023-04-05T05:37:33;98282.50;;;-1.53;64.81
65754;BME280;52488;47.502;18.940;2023-04-05T05:38:36;98279.56;;;-1.55;65.16
65754;BME280;52488;47.502;18.940;2023-04-05T05:39:39;98271.66;;;-1.42;63.71
65754;BME280;52488;47.502;18.940;2023-04-05T05:40:43;98281.66;;;-1.31;62.61
65754;BME280;52488;47.502;18.940;2023-04-05T05:41:46;98274.56;;;-1.34;63.27
65754;BME280;52488;47.502;18.940;2023-04-05T05:42:49;98275.06;;;-1.36;64.38
65754;BME280;52488;47.502;18.940;2023-04-05T05:43:52;98273.34;;;-1.33;64.44
65754;BME280;52488;47.502;18.940;2023-04-05T05:44:55;98279.47;;;-1.33;64.86
65754;BME280;52488;47.502;18.940;2023-04-05T05:46:02;98271.28;;;-1.10;60.77
65754;BME280;52488;47.502;18.940;2023-04-05T05:47:06;98279.37;;;-1.10;60.88
65754;BME280;52488;47.502;18.940;2023-04-05T05:48:09;98272.50;;;-1.11;61.42
65754;BME280;52488;47.502;18.940;2023-04-05T05:49:12;98277.41;;;-1.10;62.04